sensor_id;sensor_type;location;lat;lon;timestamp;pressure;altitude;pressure_sealevel;temperature;humidity
68476;BME280;55464;48.266;14.188;2023-07-24T00:02:13;97304.03;;;29.07;38.56
68476;BME280;55464;48.266;14.188;2023-07-24T00:04:39;97306.56;;;29.04;38.43
68476;BME280;55464;48.266;14.188;2023-07-24T00:07:04;97312.28;;;28.95;37.93
68476;BME280;55464;48.266;14.188;2023-07-24T00:09:30;97304.56;;;28.96;38.53
68476;BME280;55464;48.266;14.188;2023-07-24T00:11:55;97302.72;;;28.93;38.38
68476;BME280;55464;48.266;14.188;2023-07-24T00:14:21;97295.44;;;28.92;38.44
68476;BME280;55464;48.266;14.188;2023-07-24T00:16:46;97305.19;;;29.00;38.89
68476;BME280;55464;48.266;14.188;2023-07-24T00:19:11;97303.66;;;28.90;38.57
68476;BME280;55464;48.266;14.188;2023-07-24T00:21:37;97298.94;;;28.87;38.98
68476;BME280;55464;48.266;14.188;2023-07-24T00:24:02;97299.28;;;28.79;39.45
68476;BME280;55464;48.266;14.188;2023-07-24T00:26:28;97296.28;;;28.83;39.09
68476;BME280;55464;48.266;14.188;2023-07-24T00:28:53;97287.00;;;28.82;38.79
68476;BME280;55464;48.266;14.188;2023-07-24T00:31:18;97267.63;;;28.81;39.04
68476;BME280;55464;48.266;14.188;2023-07-24T00:33:44;97254.94;;;28.67;38.99
68476;BME280;55464;48.266;14.188;2023-07-24T00:36:09;97264.66;;;28.75;39.00
68476;BME280;55464;48.266;14.188;2023-07-24T00:38:34;97264.50;;;28.79;39.49
68476;BME280;55464;48.266;14.188;2023-07-24T00:41:00;97264.97;;;28.77;39.18
68476;BME280;55464;48.266;14.188;2023-07-24T00:43:25;97253.31;;;28.75;39.08
68476;BME280;55464;48.266;14.188;2023-07-24T00:45:50;97241.97;;;28.75;39.29
68476;BME280;55464;48.266;14.188;2023-07-24T00:48:16;97244.94;;;28.81;39.16
68476;BME280;55464;48.266;14.188;2023-07-24T00:50:42;97240.03;;;28.81;39.27
68476;BME280;55464;48.266;14.188;2023-07-24T00:53:11;97235.19;;;28.73;39.13
68476;BME280;55464;48.266;14.188;2023-07-24T00:55:37;97239.63;;;28.74;39.20
68476;BME280;55464;48.266;14.188;2023-07-24T00:58:03;97232.19;;;28.76;38.79
68476;BME280;55464;48.266;14.188;2023-07-24T01:00:28;97226.53;;;28.76;38.36
68476;BME280;55464;48.266;14.188;2023-07-24T01:02:55;97224.78;;;28.79;38.81
68476;BME280;55464;48.266;14.188;2023-07-24T01:05:22;97218.06;;;28.67;38.76
68476;BME280;55464;48.266;14.188;2023-07-24T01:07:49;97218.25;;;28.63;38.42
68476;BME280;55464;48.266;14.188;2023-07-24T01:10:14;97202.13;;;28.70;38.61
68476;BME280;55464;48.266;14.188;2023-07-24T01:12:52;97195.09;;;28.65;38.53
68476;BME280;55464;48.266;14.188;2023-07-24T01:15:24;97200.09;;;28.70;38.35
68476;BME280;55464;48.266;14.188;2023-07-24T01:17:59;97196.16;;;28.67;38.63
68476;BME280;55464;48.266;14.188;2023-07-24T01:20:26;97187.00;;;28.73;38.49
68476;BME280;55464;48.266;14.188;2023-07-24T01:23:14;97182.28;;;28.70;38.39
68476;BME280;55464;48.266;14.188;2023-07-24T01:28:20;97182.25;;;28.79;38.46
68476;BME280;55464;48.266;14.188;2023-07-24T01:30:45;97184.34;;;28.93;38.09
68476;BME280;55464;48.266;14.188;2023-07-24T01:33:11;97186.53;;;28.98;37.64
68476;BME280;55464;48.266;14.188;2023-07-24T01:35:38;97168.03;;;29.03;37.75
68476;BME280;55464;48.266;14.188;2023-07-24T01:38:03;97174.03;;;29.05;38.06
68476;BME280;55464;48.266;14.188;2023-07-24T01:40:29;97174.44;;;29.13;37.68
68476;BME280;55464;48.266;14.188;2023-07-24T01:42:56;97179.00;;;29.10;37.63
68476;BME280;55464;48.266;14.188;2023-07-24T01:45:24;97175.41;;;29.10;38.08
68476;BME280;55464;48.266;14.188;2023-07-24T01:47:49;97165.44;;;29.14;37.70
68476;BME280;55464;48.266;14.188;2023-07-24T01:50:15;97151.63;;;29.07;38.01
68476;BME280;55464;48.266;14.188;2023-07-24T01:52:40;97156.69;;;29.03;37.50
68476;BME280;55464;48.266;14.188;2023-07-24T01:55:06;97147.03;;;28.85;37.83
68476;BME280;55464;48.266;14.188;2023-07-24T01:57:31;97154.19;;;28.81;38.30
68476;BME280;55464;48.266;14.188;2023-07-24T01:59:57;97158.81;;;28.69;38.12
68476;BME280;55464;48.266;14.188;2023-07-24T02:02:23;97153.56;;;28.53;38.34
68476;BME280;55464;48.266;14.188;2023-07-24T02:04:48;97151.69;;;28.50;38.27
68476;BME280;55464;48.266;14.188;2023-07-24T02:07:14;97167.22;;;28.63;38.52
68476;BME280;55464;48.266;14.188;2023-07-24T02:09:40;97164.09;;;28.61;38.09
68476;BME280;55464;48.266;14.188;2023-07-24T02:12:06;97169.41;;;28.26;38.41
68476;BME280;55464;48.266;14.188;2023-07-24T02:14:31;97172.78;;;28.15;38.69
68476;BME280;55464;48.266;14.188;2023-07-24T02:16:56;97179.41;;;28.12;39.15
68476;BME280;55464;48.266;14.188;2023-07-24T02:19:22;97168.66;;;27.64;40.59
68476;BME280;55464;48.266;14.188;2023-07-24T02:21:47;97176.97;;;27.77;40.93
68476;BME280;55464;48.266;14.188;2023-07-24T02:24:12;97161.34;;;28.00;40.29
68476;BME280;55464;48.266;14.188;2023-07-24T02:26:38;97167.41;;;28.17;40.21
68476;BME280;55464;48.266;14.188;2023-07-24T02:29:03;97168.81;;;28.22;40.38
68476;BME280;55464;48.266;14.188;2023-07-24T02:31:29;97159.97;;;28.29;40.20
68476;BME280;55464;48.266;14.188;2023-07-24T02:33:54;97158.06;;;28.35;39.96
68476;BME280;55464;48.266;14.188;2023-07-24T02:36:19;97165.09;;;28.40;39.81
68476;BME280;55464;48.266;14.188;2023-07-24T02:38:45;97152.50;;;28.41;39.84
68476;BME280;55464;48.266;14.188;2023-07-24T02:41:10;97149.41;;;28.29;40.09
68476;BME280;55464;48.266;14.188;2023-07-24T02:43:35;97154.00;;;28.27;39.99
68476;BME280;55464;48.266;14.188;2023-07-24T02:46:01;97146.16;;;28.22;40.13
68476;BME280;55464;48.266;14.188;2023-07-24T02:48:27;97147.56;;;28.26;40.19
68476;BME280;55464;48.266;14.188;2023-07-24T02:50:53;97142.25;;;28.10;40.11
68476;BME280;55464;48.266;14.188;2023-07-24T02:53:18;97136.13;;;28.12;40.07
68476;BME280;55464;48.266;14.188;2023-07-24T02:55:43;97149.69;;;27.89;40.43
68476;BME280;55464;48.266;14.188;2023-07-24T02:58:11;97137.63;;;27.79;40.66
68476;BME280;55464;48.266;14.188;2023-07-24T03:00:37;97146.63;;;27.68;40.49
68476;BME280;55464;48.266;14.188;2023-07-24T03:03:03;97152.47;;;27.65;41.01
68476;BME280;55464;48.266;14.188;2023-07-24T03:05:28;97150.72;;;27.67;40.97
68476;BME280;55464;48.266;14.188;2023-07-24T03:07:54;97135.09;;;27.81;40.93
68476;BME280;55464;48.266;14.188;2023-07-24T03:10:19;97132.63;;;27.74;41.42
68476;BME280;55464;48.266;14.188;2023-07-24T03:12:44;97132.63;;;27.74;41.21
68476;BME280;55464;48.266;14.188;2023-07-24T03:15:10;97142.66;;;27.84;40.75
68476;BME280;55464;48.266;14.188;2023-07-24T03:17:35;97155.06;;;27.87;40.62
68476;BME280;55464;48.266;14.188;2023-07-24T03:20:17;97155.69;;;27.91;40.79
68476;BME280;55464;48.266;14.188;2023-07-24T03:22:43;97139.66;;;27.88;40.51
68476;BME280;55464;48.266;14.188;2023-07-24T03:25:09;97141.69;;;27.87;40.98
68476;BME280;55464;48.266;14.188;2023-07-24T03:27:34;97133.81;;;28.01;40.84
68476;BME280;55464;48.266;14.188;2023-07-24T03:30:00;97127.97;;;28.04;40.14
68476;BME280;55464;48.266;14.188;2023-07-24T03:32:25;97115.88;;;28.04;40.54
68476;BME280;55464;48.266;14.188;2023-07-24T03:34:51;97112.69;;;28.11;40.56
68476;BME280;55464;48.266;14.188;2023-07-24T03:37:16;97107.31;;;28.13;40.01
68476;BME280;55464;48.266;14.188;2023-07-24T03:39:42;97101.25;;;27.96;39.60
68476;BME280;55464;48.266;14.188;2023-07-24T03:42:10;97118.75;;;27.95;39.98
68476;BME280;55464;48.266;14.188;2023-07-24T03:44:38;97108.97;;;27.96;39.76
68476;BME280;55464;48.266;14.188;2023-07-24T03:47:03;97104.41;;;27.89;39.71
68476;BME280;55464;48.266;14.188;2023-07-24T03:49:28;97108.69;;;27.84;39.88
68476;BME280;55464;48.266;14.188;2023-07-24T03:51:54;97117.53;;;27.77;39.61
68476;BME280;55464;48.266;14.188;2023-07-24T03:54:19;97118.66;;;27.61;39.97
68476;BME280;55464;48.266;14.188;2023-07-24T03:56:44;97118.81;;;27.67;40.33
68476;BME280;55464;48.266;14.188;2023-07-24T03:59:10;97121.63;;;27.67;40.21
68476;BME280;55464;48.266;14.188;2023-07-24T04:01:38;97116.63;;;27.62;39.87
68476;BME280;55464;48.266;14.188;2023-07-24T04:04:04;97118.94;;;27.72;40.15
68476;BME280;55464;48.266;14.188;2023-07-24T04:06:29;97112.34;;;27.66;40.53
68476;BME280;55464;48.266;14.188;2023-07-24T04:08:54;97114.22;;;27.69;39.84
68476;BME280;55464;48.266;14.188;2023-07-24T04:11:20;97116.88;;;27.73;40.12
68476;BME280;55464;48.266;14.188;2023-07-24T04:13:45;97116.66;;;27.52;39.86
68476;BME280;55464;48.266;14.188;2023-07-24T04:16:10;97117.09;;;27.60;40.25
68476;BME280;55464;48.266;14.188;2023-07-24T04:18:36;97125.06;;;27.71;40.05
68476;BME280;55464;48.266;14.188;2023-07-24T04:21:01;97123.81;;;27.63;39.87
68476;BME280;55464;48.266;14.188;2023-07-24T04:23:26;97117.06;;;27.69;40.11
68476;BME280;55464;48.266;14.188;2023-07-24T04:25:52;97124.97;;;27.56;39.97
68476;BME280;55464;48.266;14.188;2023-07-24T04:28:17;97120.72;;;27.51;39.83
68476;BME280;55464;48.266;14.188;2023-07-24T04:30:42;97120.88;;;27.48;40.11
68476;BME280;55464;48.266;14.188;2023-07-24T04:33:08;97127.66;;;27.41;39.91
68476;BME280;55464;48.266;14.188;2023-07-24T04:35:33;97122.13;;;27.47;40.84
68476;BME280;55464;48.266;14.188;2023-07-24T04:37:58;97124.34;;;27.52;41.00
68476;BME280;55464;48.266;14.188;2023-07-24T04:40:24;97126.22;;;27.55;40.69
68476;BME280;55464;48.266;14.188;2023-07-24T04:42:49;97136.44;;;27.43;41.30
68476;BME280;55464;48.266;14.188;2023-07-24T04:45:15;97125.63;;;27.32;41.41
68476;BME280;55464;48.266;14.188;2023-07-24T04:47:40;97139.78;;;27.14;41.72
68476;BME280;55464;48.266;14.188;2023-07-24T04:50:06;97144.47;;;27.26;41.88
68476;BME280;55464;48.266;14.188;2023-07-24T04:52:31;97140.56;;;27.05;42.11
68476;BME280;55464;48.266;14.188;2023-07-24T04:54:57;97147.13;;;27.21;42.07
68476;BME280;55464;48.266;14.188;2023-07-24T04:57:22;97147.78;;;26.97;42.76
68476;BME280;55464;48.266;14.188;2023-07-24T04:59:47;97155.16;;;26.85;42.82
68476;BME280;55464;48.266;14.188;2023-07-24T05:02:13;97156.38;;;26.75;42.45
68476;BME280;55464;48.266;14.188;2023-07-24T05:04:38;97155.28;;;26.63;43.04
68476;BME280;55464;48.266;14.188;2023-07-24T05:07:04;97141.63;;;26.71;42.55
68476;BME280;55464;48.266;14.188;2023-07-24T05:09:29;97144.63;;;26.95;42.61
68476;BME280;55464;48.266;14.188;2023-07-24T05:11:54;97139.59;;;26.90;41.83
68476;BME280;55464;48.266;14.188;2023-07-24T05:14:20;97157.50;;;26.96;42.02
68476;BME280;55464;48.266;14.188;2023-07-24T05:16:45;97158.94;;;26.91;41.91
68476;BME280;55464;48.266;14.188;2023-07-24T05:19:11;97146.81;;;26.91;41.89
68476;BME280;55464;48.266;14.188;2023-07-24T05:21:36;97154.97;;;26.70;41.89
68476;BME280;55464;48.266;14.188;2023-07-24T05:24:02;97159.09;;;26.88;41.87
68476;BME280;55464;48.266;14.188;2023-07-24T05:26:27;97164.84;;;26.66;41.88
68476;BME280;55464;48.266;14.188;2023-07-24T05:28:52;97165.81;;;26.31;42.72
68476;BME280;55464;48.266;14.188;2023-07-24T05:31:18;97167.19;;;26.58;42.27
68476;BME280;55464;48.266;14.188;2023-07-24T05:33:43;97161.03;;;26.59;42.26
68476;BME280;55464;48.266;14.188;2023-07-24T05:36:09;97162.03;;;26.75;41.95
68476;BME280;55464;48.266;14.188;2023-07-24T05:38:34;97157.03;;;26.97;41.75
68476;BME280;55464;48.266;14.188;2023-07-24T05:41:01;97162.38;;;27.23;41.79
68476;BME280;55464;48.266;14.188;2023-07-24T05:43:28;97171.00;;;27.10;41.67
68476;BME280;55464;48.266;14.188;2023-07-24T05:45:55;97166.31;;;27.26;41.55
68476;BME280;55464;48.266;14.188;2023-07-24T05:48:21;97163.63;;;27.22;40.83
68476;BME280;55464;48.266;14.188;2023-07-24T05:50:46;97167.09;;;26.98;40.47
68476;BME280;55464;48.266;14.188;2023-07-24T05:53:13;97170.09;;;26.95;40.27
68476;BME280;55464;48.266;14.188;2023-07-24T05:55:38;97159.69;;;26.73;40.35
68476;BME280;55464;48.266;14.188;2023-07-24T05:58:03;97167.38;;;26.82;40.37
68476;BME280;55464;48.266;14.188;2023-07-24T06:00:29;97169.13;;;26.98;40.17
68476;BME280;55464;48.266;14.188;2023-07-24T06:02:54;97171.50;;;26.90;40.45
68476;BME280;55464;48.266;14.188;2023-07-24T06:05:20;97182.22;;;26.46;40.91
68476;BME280;55464;48.266;14.188;2023-07-24T06:07:46;97194.59;;;26.39;41.63
68476;BME280;55464;48.266;14.188;2023-07-24T06:10:12;97203.69;;;26.43;41.41
68476;BME280;55464;48.266;14.188;2023-07-24T06:12:38;97200.97;;;26.62;41.43
68476;BME280;55464;48.266;14.188;2023-07-24T06:15:03;97193.63;;;26.83;41.09
68476;BME280;55464;48.266;14.188;2023-07-24T06:17:29;97190.19;;;26.97;41.26
68476;BME280;55464;48.266;14.188;2023-07-24T06:19:54;97208.88;;;26.94;40.91
68476;BME280;55464;48.266;14.188;2023-07-24T06:22:19;97195.38;;;27.08;40.93
68476;BME280;55464;48.266;14.188;2023-07-24T06:24:45;97159.41;;;27.17;41.25
68476;BME280;55464;48.266;14.188;2023-07-24T06:27:10;97163.19;;;27.42;41.06
68476;BME280;55464;48.266;14.188;2023-07-24T06:29:36;97158.75;;;27.50;40.57
68476;BME280;55464;48.266;14.188;2023-07-24T06:32:01;97174.47;;;27.61;40.66
68476;BME280;55464;48.266;14.188;2023-07-24T06:34:26;97169.44;;;27.65;40.51
68476;BME280;55464;48.266;14.188;2023-07-24T06:36:52;97150.25;;;27.69;40.63
68476;BME280;55464;48.266;14.188;2023-07-24T06:39:17;97157.47;;;27.70;40.25
68476;BME280;55464;48.266;14.188;2023-07-24T06:41:42;97157.97;;;27.68;39.58
68476;BME280;55464;48.266;14.188;2023-07-24T06:44:08;97149.88;;;27.85;40.34
68476;BME280;55464;48.266;14.188;2023-07-24T06:46:33;97138.91;;;27.69;39.47
68476;BME280;55464;48.266;14.188;2023-07-24T06:48:58;97136.03;;;27.87;39.28
68476;BME280;55464;48.266;14.188;2023-07-24T06:51:24;97139.66;;;27.97;38.97
68476;BME280;55464;48.266;14.188;2023-07-24T06:53:49;97136.34;;;27.99;38.45
68476;BME280;55464;48.266;14.188;2023-07-24T06:56:14;97126.78;;;27.78;38.53
68476;BME280;55464;48.266;14.188;2023-07-24T06:58:40;97125.66;;;27.84;38.58
68476;BME280;55464;48.266;14.188;2023-07-24T07:01:06;97128.63;;;27.90;39.41
68476;BME280;55464;48.266;14.188;2023-07-24T07:03:32;97122.78;;;28.03;40.05
68476;BME280;55464;48.266;14.188;2023-07-24T07:05:59;97130.63;;;28.08;39.31
68476;BME280;55464;48.266;14.188;2023-07-24T07:08:25;97127.03;;;28.07;40.39
68476;BME280;55464;48.266;14.188;2023-07-24T07:10:57;97125.91;;;28.14;40.92
68476;BME280;55464;48.266;14.188;2023-07-24T07:13:23;97125.91;;;28.14;40.61
68476;BME280;55464;48.266;14.188;2023-07-24T07:15:48;97121.06;;;28.29;40.67
68476;BME280;55464;48.266;14.188;2023-07-24T07:18:13;97114.31;;;28.27;41.16
68476;BME280;55464;48.266;14.188;2023-07-24T07:20:45;97112.34;;;28.42;40.46
68476;BME280;55464;48.266;14.188;2023-07-24T07:23:10;97107.28;;;28.46;40.56
68476;BME280;55464;48.266;14.188;2023-07-24T07:25:35;97100.22;;;28.42;39.57
68476;BME280;55464;48.266;14.188;2023-07-24T07:28:01;97124.56;;;28.58;39.27
68476;BME280;55464;48.266;14.188;2023-07-24T07:30:26;97118.69;;;28.37;40.31
68476;BME280;55464;48.266;14.188;2023-07-24T07:32:51;97115.31;;;28.48;39.66
68476;BME280;55464;48.266;14.188;2023-07-24T07:35:17;97100.03;;;28.55;40.28
68476;BME280;55464;48.266;14.188;2023-07-24T07:37:42;97091.44;;;28.64;39.11
68476;BME280;55464;48.266;14.188;2023-07-24T07:40:08;97071.47;;;28.34;38.79
68476;BME280;55464;48.266;14.188;2023-07-24T07:42:33;97094.25;;;28.40;38.06
68476;BME280;55464;48.266;14.188;2023-07-24T07:44:59;97089.38;;;28.40;38.11
68476;BME280;55464;48.266;14.188;2023-07-24T07:47:24;97084.09;;;28.33;39.29
68476;BME280;55464;48.266;14.188;2023-07-24T07:49:49;97090.75;;;28.45;38.13
68476;BME280;55464;48.266;14.188;2023-07-24T07:52:15;97085.75;;;28.40;39.28
68476;BME280;55464;48.266;14.188;2023-07-24T07:54:46;97086.88;;;28.66;41.22
68476;BME280;55464;48.266;14.188;2023-07-24T07:57:11;97075.84;;;28.83;40.78
68476;BME280;55464;48.266;14.188;2023-07-24T07:59:37;97070.66;;;28.82;39.38
68476;BME280;55464;48.266;14.188;2023-07-24T08:02:02;97068.03;;;28.78;38.30
68476;BME280;55464;48.266;14.188;2023-07-24T08:04:28;97067.97;;;28.88;38.43
68476;BME280;55464;48.266;14.188;2023-07-24T08:06:53;97047.13;;;28.91;37.77
68476;BME280;55464;48.266;14.188;2023-07-24T08:09:18;97061.22;;;29.00;38.28
68476;BME280;55464;48.266;14.188;2023-07-24T08:11:44;97052.28;;;28.77;38.14
68476;BME280;55464;48.266;14.188;2023-07-24T08:14:10;97036.63;;;28.67;39.66
68476;BME280;55464;48.266;14.188;2023-07-24T08:16:35;97047.13;;;28.91;39.52
68476;BME280;55464;48.266;14.188;2023-07-24T08:19:01;97049.97;;;29.06;38.93
68476;BME280;55464;48.266;14.188;2023-07-24T08:21:26;97049.00;;;29.09;38.69
68476;BME280;55464;48.266;14.188;2023-07-24T08:23:51;97047.53;;;29.13;38.91
68476;BME280;55464;48.266;14.188;2023-07-24T08:26:17;97037.69;;;29.23;39.78
68476;BME280;55464;48.266;14.188;2023-07-24T08:28:42;97036.41;;;29.39;39.54
68476;BME280;55464;48.266;14.188;2023-07-24T08:31:08;97034.88;;;29.38;39.20
68476;BME280;55464;48.266;14.188;2023-07-24T08:33:33;97028.19;;;29.41;39.30
68476;BME280;55464;48.266;14.188;2023-07-24T08:36:06;97015.53;;;29.57;40.53
68476;BME280;55464;48.266;14.188;2023-07-24T08:38:33;97025.34;;;29.56;39.81
68476;BME280;55464;48.266;14.188;2023-07-24T08:41:03;97025.63;;;29.58;39.86
68476;BME280;55464;48.266;14.188;2023-07-24T08:43:30;97023.75;;;29.70;39.97
68476;BME280;55464;48.266;14.188;2023-07-24T08:45:59;97024.44;;;29.80;39.97
68476;BME280;55464;48.266;14.188;2023-07-24T08:48:27;97014.66;;;29.81;40.30
68476;BME280;55464;48.266;14.188;2023-07-24T08:50:54;97024.13;;;29.93;40.87
68476;BME280;55464;48.266;14.188;2023-07-24T08:53:21;97016.16;;;29.97;40.58
68476;BME280;55464;48.266;14.188;2023-07-24T08:55:48;97012.75;;;29.93;40.12
68476;BME280;55464;48.266;14.188;2023-07-24T08:58:14;97007.88;;;29.78;38.86
68476;BME280;55464;48.266;14.188;2023-07-24T09:00:40;96997.97;;;29.89;39.21
68476;BME280;55464;48.266;14.188;2023-07-24T09:03:06;96992.19;;;29.98;39.55
68476;BME280;55464;48.266;14.188;2023-07-24T09:05:33;96987.84;;;30.03;39.69
68476;BME280;55464;48.266;14.188;2023-07-24T09:07:58;96978.59;;;30.08;40.38
68476;BME280;55464;48.266;14.188;2023-07-24T09:10:25;96983.59;;;30.13;40.28
68476;BME280;55464;48.266;14.188;2023-07-24T09:12:50;96986.50;;;30.19;40.47
68476;BME280;55464;48.266;14.188;2023-07-24T09:15:16;96990.91;;;30.20;39.75
68476;BME280;55464;48.266;14.188;2023-07-24T09:17:49;96981.09;;;30.21;39.06
68476;BME280;55464;48.266;14.188;2023-07-24T09:20:14;96973.22;;;30.30;39.53
68476;BME280;55464;48.266;14.188;2023-07-24T09:22:53;96975.16;;;30.39;40.58
68476;BME280;55464;48.266;14.188;2023-07-24T09:25:32;96979.69;;;30.51;40.11
68476;BME280;55464;48.266;14.188;2023-07-24T09:27:58;96974.63;;;30.61;39.90
68476;BME280;55464;48.266;14.188;2023-07-24T09:30:24;96972.06;;;30.63;40.91
68476;BME280;55464;48.266;14.188;2023-07-24T09:32:55;96957.91;;;30.69;40.19
68476;BME280;55464;48.266;14.188;2023-07-24T09:35:21;96959.84;;;30.83;39.50
68476;BME280;55464;48.266;14.188;2023-07-24T09:38:04;96947.94;;;30.79;39.75
68476;BME280;55464;48.266;14.188;2023-07-24T09:40:41;96952.41;;;30.86;39.56
68476;BME280;55464;48.266;14.188;2023-07-24T09:43:21;96950.75;;;31.00;39.55
68476;BME280;55464;48.266;14.188;2023-07-24T09:45:47;96962.56;;;30.92;38.79
68476;BME280;55464;48.266;14.188;2023-07-24T09:48:15;96954.44;;;30.85;39.16
68476;BME280;55464;48.266;14.188;2023-07-24T09:50:42;96952.63;;;30.82;39.48
68476;BME280;55464;48.266;14.188;2023-07-24T09:53:21;96954.22;;;30.63;37.76
68476;BME280;55464;48.266;14.188;2023-07-24T09:55:56;96948.81;;;30.65;38.61
68476;BME280;55464;48.266;14.188;2023-07-24T09:58:23;96928.41;;;30.66;39.14
68476;BME280;55464;48.266;14.188;2023-07-24T10:00:50;96916.88;;;30.76;39.32
68476;BME280;55464;48.266;14.188;2023-07-24T10:03:16;96920.22;;;30.74;38.98
68476;BME280;55464;48.266;14.188;2023-07-24T10:05:44;96905.59;;;30.87;39.85
68476;BME280;55464;48.266;14.188;2023-07-24T10:08:14;96905.44;;;30.96;39.75
68476;BME280;55464;48.266;14.188;2023-07-24T10:10:40;96908.56;;;30.98;38.95
68476;BME280;55464;48.266;14.188;2023-07-24T10:13:06;96903.31;;;30.91;39.43
68476;BME280;55464;48.266;14.188;2023-07-24T10:15:32;96911.66;;;30.95;38.82
68476;BME280;55464;48.266;14.188;2023-07-24T10:18:05;96920.75;;;31.04;38.89
68476;BME280;55464;48.266;14.188;2023-07-24T10:20:36;96925.25;;;31.17;38.71
68476;BME280;55464;48.266;14.188;2023-07-24T10:23:03;96922.41;;;31.17;38.25
68476;BME280;55464;48.266;14.188;2023-07-24T10:25:29;96935.25;;;31.06;38.30
68476;BME280;55464;48.266;14.188;2023-07-24T10:28:01;96923.22;;;31.17;38.43
68476;BME280;55464;48.266;14.188;2023-07-24T10:30:30;96915.94;;;31.16;37.94
68476;BME280;55464;48.266;14.188;2023-07-24T10:33:23;96920.38;;;31.17;37.22
68476;BME280;55464;48.266;14.188;2023-07-24T10:36:06;96915.78;;;31.31;37.43
68476;BME280;55464;48.266;14.188;2023-07-24T10:38:36;96910.41;;;31.33;38.69
68476;BME280;55464;48.266;14.188;2023-07-24T10:41:03;96918.06;;;31.53;38.60
68476;BME280;55464;48.266;14.188;2023-07-24T10:43:32;96923.41;;;31.45;37.29
68476;BME280;55464;48.266;14.188;2023-07-24T10:46:04;96940.75;;;31.42;37.68
68476;BME280;55464;48.266;14.188;2023-07-24T10:48:30;96954.38;;;31.32;37.65
68476;BME280;55464;48.266;14.188;2023-07-24T10:50:55;96943.44;;;31.25;37.41
68476;BME280;55464;48.266;14.188;2023-07-24T10:53:22;96940.72;;;31.10;35.86
68476;BME280;55464;48.266;14.188;2023-07-24T10:55:48;96929.34;;;31.10;35.96
68476;BME280;55464;48.266;14.188;2023-07-24T10:58:15;96931.84;;;31.28;36.68
68476;BME280;55464;48.266;14.188;2023-07-24T11:00:42;96928.50;;;31.36;37.06
68476;BME280;55464;48.266;14.188;2023-07-24T11:03:09;96935.44;;;31.29;36.07
68476;BME280;55464;48.266;14.188;2023-07-24T11:05:39;96925.59;;;31.24;36.37
68476;BME280;55464;48.266;14.188;2023-07-24T11:08:12;96921.88;;;31.13;36.47
68476;BME280;55464;48.266;14.188;2023-07-24T11:10:54;96924.09;;;31.35;37.47
68476;BME280;55464;48.266;14.188;2023-07-24T11:13:22;96916.84;;;31.34;36.42
68476;BME280;55464;48.266;14.188;2023-07-24T11:15:49;96919.22;;;31.35;36.23
68476;BME280;55464;48.266;14.188;2023-07-24T11:18:15;96919.75;;;31.39;36.45
68476;BME280;55464;48.266;14.188;2023-07-24T11:20:46;96916.22;;;31.50;37.08
68476;BME280;55464;48.266;14.188;2023-07-24T11:23:12;96911.63;;;31.58;36.80
68476;BME280;55464;48.266;14.188;2023-07-24T11:25:38;96912.97;;;31.69;37.76
68476;BME280;55464;48.266;14.188;2023-07-24T11:28:09;96907.25;;;31.63;36.32
68476;BME280;55464;48.266;14.188;2023-07-24T11:30:35;96921.78;;;31.71;35.48
68476;BME280;55464;48.266;14.188;2023-07-24T11:33:02;96917.34;;;31.64;35.63
68476;BME280;55464;48.266;14.188;2023-07-24T11:35:29;96912.47;;;31.70;34.63
68476;BME280;55464;48.266;14.188;2023-07-24T11:37:54;96920.69;;;31.62;34.07
68476;BME280;55464;48.266;14.188;2023-07-24T11:40:20;96914.69;;;31.55;33.36
68476;BME280;55464;48.266;14.188;2023-07-24T11:42:48;96897.41;;;31.64;32.92
68476;BME280;55464;48.266;14.188;2023-07-24T11:45:14;96892.81;;;31.78;33.62
68476;BME280;55464;48.266;14.188;2023-07-24T11:47:50;96882.00;;;31.88;35.05
68476;BME280;55464;48.266;14.188;2023-07-24T11:50:17;96875.25;;;31.91;35.76
68476;BME280;55464;48.266;14.188;2023-07-24T11:55:12;96873.16;;;31.85;32.25
68476;BME280;55464;48.266;14.188;2023-07-24T11:57:38;96864.09;;;31.87;33.34
68476;BME280;55464;48.266;14.188;2023-07-24T12:00:05;96855.84;;;31.89;32.85
68476;BME280;55464;48.266;14.188;2023-07-24T12:02:32;96863.22;;;31.64;32.54
68476;BME280;55464;48.266;14.188;2023-07-24T12:04:59;96850.34;;;31.74;32.35
68476;BME280;55464;48.266;14.188;2023-07-24T12:07:34;96849.59;;;31.85;34.04
68476;BME280;55464;48.266;14.188;2023-07-24T12:10:05;96866.66;;;31.74;31.87
68476;BME280;55464;48.266;14.188;2023-07-24T12:12:46;96872.28;;;31.62;31.63
68476;BME280;55464;48.266;14.188;2023-07-24T12:15:12;96873.13;;;31.74;31.55
68476;BME280;55464;48.266;14.188;2023-07-24T12:17:38;96862.81;;;31.82;33.06
68476;BME280;55464;48.266;14.188;2023-07-24T12:20:04;96854.44;;;31.67;31.61
68476;BME280;55464;48.266;14.188;2023-07-24T12:22:31;96853.78;;;31.90;32.82
68476;BME280;55464;48.266;14.188;2023-07-24T12:24:57;96853.19;;;31.80;32.21
68476;BME280;55464;48.266;14.188;2023-07-24T12:27:23;96840.28;;;31.84;32.64
68476;BME280;55464;48.266;14.188;2023-07-24T12:29:49;96839.28;;;31.99;33.08
68476;BME280;55464;48.266;14.188;2023-07-24T12:32:15;96846.25;;;31.92;32.40
68476;BME280;55464;48.266;14.188;2023-07-24T12:34:40;96848.34;;;32.03;32.23
68476;BME280;55464;48.266;14.188;2023-07-24T12:37:06;96845.34;;;32.18;32.43
68476;BME280;55464;48.266;14.188;2023-07-24T12:39:31;96840.06;;;31.99;32.23
68476;BME280;55464;48.266;14.188;2023-07-24T12:41:56;96836.66;;;31.84;32.32
68476;BME280;55464;48.266;14.188;2023-07-24T12:44:22;96827.63;;;31.97;32.47
68476;BME280;55464;48.266;14.188;2023-07-24T12:46:48;96826.91;;;32.13;32.78
68476;BME280;55464;48.266;14.188;2023-07-24T12:49:13;96829.22;;;32.03;32.33
68476;BME280;55464;48.266;14.188;2023-07-24T12:51:39;96823.28;;;32.07;32.50
68476;BME280;55464;48.266;14.188;2023-07-24T12:54:04;96827.13;;;32.04;32.77